sensor_id;sensor_type;location;lat;lon;timestamp;P1;durP1;ratioP1;P2;durP2;ratioP2
5995;SDS011;3026;53.612;7.278;2024-02-23T00:02:19;8.20;;;1.57;;
5995;SDS011;3026;53.612;7.278;2024-02-23T00:04:48;9.30;;;2.33;;
5995;SDS011;3026;53.612;7.278;2024-02-23T00:07:15;9.37;;;1.20;;
5995;SDS011;3026;53.612;7.278;2024-02-23T00:09:49;11.93;;;1.60;;
5995;SDS011;3026;53.612;7.278;2024-02-23T00:12:17;8.77;;;2.37;;
5995;SDS011;3026;53.612;7.278;2024-02-23T00:14:45;8.37;;;2.67;;
5995;SDS011;3026;53.612;7.278;2024-02-23T00:17:12;8.90;;;1.60;;
5995;SDS011;3026;53.612;7.278;2024-02-23T00:19:39;8.80;;;1.30;;
5995;SDS011;3026;53.612;7.278;2024-02-23T00:22:07;5.30;;;1.67;;
5995;SDS011;3026;53.612;7.278;2024-02-23T00:24:35;8.97;;;1.60;;
5995;SDS011;3026;53.612;7.278;2024-02-23T00:27:09;12.30;;;2.10;;
5995;SDS011;3026;53.612;7.278;2024-02-23T00:29:38;7.13;;;1.80;;
5995;SDS011;3026;53.612;7.278;2024-02-23T00:32:07;8.97;;;1.60;;
5995;SDS011;3026;53.612;7.278;2024-02-23T00:34:34;4.83;;;1.60;;
5995;SDS011;3026;53.612;7.278;2024-02-23T00:37:02;9.27;;;1.73;;
5995;SDS011;3026;53.612;7.278;2024-02-23T00:39:29;8.07;;;1.70;;
5995;SDS011;3026;53.612;7.278;2024-02-23T00:41:57;10.77;;;2.63;;
5995;SDS011;3026;53.612;7.278;2024-02-23T00:44:26;3.37;;;1.10;;
5995;SDS011;3026;53.612;7.278;2024-02-23T00:46:53;9.43;;;1.50;;
5995;SDS011;3026;53.612;7.278;2024-02-23T00:49:20;7.00;;;1.50;;
5995;SDS011;3026;53.612;7.278;2024-02-23T00:51:47;9.80;;;1.50;;
5995;SDS011;3026;53.612;7.278;2024-02-23T00:54:14;8.63;;;1.77;;
5995;SDS011;3026;53.612;7.278;2024-02-23T00:56:41;10.03;;;1.70;;
5995;SDS011;3026;53.612;7.278;2024-02-23T00:59:08;7.53;;;2.43;;
5995;SDS011;3026;53.612;7.278;2024-02-23T01:01:39;14.33;;;2.27;;
5995;SDS011;3026;53.612;7.278;2024-02-23T01:04:06;8.13;;;1.73;;
5995;SDS011;3026;53.612;7.278;2024-02-23T01:06:33;11.23;;;1.97;;
5995;SDS011;3026;53.612;7.278;2024-02-23T01:09:01;13.97;;;3.20;;
5995;SDS011;3026;53.612;7.278;2024-02-23T01:11:29;10.03;;;1.40;;
5995;SDS011;3026;53.612;7.278;2024-02-23T01:13:56;3.87;;;1.37;;
5995;SDS011;3026;53.612;7.278;2024-02-23T01:16:24;5.23;;;1.10;;
5995;SDS011;3026;53.612;7.278;2024-02-23T01:18:53;4.93;;;1.37;;
5995;SDS011;3026;53.612;7.278;2024-02-23T01:21:20;6.10;;;1.30;;
5995;SDS011;3026;53.612;7.278;2024-02-23T01:23:48;8.97;;;2.03;;
5995;SDS011;3026;53.612;7.278;2024-02-23T01:26:15;6.33;;;0.90;;
5995;SDS011;3026;53.612;7.278;2024-02-23T01:28:42;3.37;;;0.93;;
5995;SDS011;3026;53.612;7.278;2024-02-23T01:31:10;6.80;;;1.80;;
5995;SDS011;3026;53.612;7.278;2024-02-23T01:33:39;6.83;;;1.30;;
5995;SDS011;3026;53.612;7.278;2024-02-23T01:36:08;6.67;;;1.33;;
5995;SDS011;3026;53.612;7.278;2024-02-23T01:38:37;5.30;;;1.30;;
5995;SDS011;3026;53.612;7.278;2024-02-23T01:41:04;8.50;;;2.03;;
5995;SDS011;3026;53.612;7.278;2024-02-23T01:43:32;3.17;;;1.20;;
5995;SDS011;3026;53.612;7.278;2024-02-23T01:45:59;6.27;;;1.10;;
5995;SDS011;3026;53.612;7.278;2024-02-23T01:48:27;3.87;;;0.97;;
5995;SDS011;3026;53.612;7.278;2024-02-23T01:50:55;6.20;;;1.40;;
5995;SDS011;3026;53.612;7.278;2024-02-23T01:53:26;3.00;;;1.10;;
5995;SDS011;3026;53.612;7.278;2024-02-23T01:55:54;9.17;;;1.30;;
5995;SDS011;3026;53.612;7.278;2024-02-23T01:58:23;5.20;;;1.40;;
5995;SDS011;3026;53.612;7.278;2024-02-23T02:00:51;2.80;;;0.90;;
5995;SDS011;3026;53.612;7.278;2024-02-23T02:03:18;5.03;;;0.90;;
5995;SDS011;3026;53.612;7.278;2024-02-23T02:05:47;4.30;;;1.30;;
5995;SDS011;3026;53.612;7.278;2024-02-23T02:08:20;6.33;;;1.97;;
5995;SDS011;3026;53.612;7.278;2024-02-23T02:10:49;6.57;;;1.53;;
5995;SDS011;3026;53.612;7.278;2024-02-23T02:13:16;6.90;;;1.50;;
5995;SDS011;3026;53.612;7.278;2024-02-23T02:15:44;8.03;;;1.60;;
5995;SDS011;3026;53.612;7.278;2024-02-23T02:18:11;6.40;;;1.70;;
5995;SDS011;3026;53.612;7.278;2024-02-23T02:20:38;7.40;;;2.37;;
5995;SDS011;3026;53.612;7.278;2024-02-23T02:23:18;6.47;;;1.53;;
5995;SDS011;3026;53.612;7.278;2024-02-23T02:25:45;10.60;;;1.80;;
5995;SDS011;3026;53.612;7.278;2024-02-23T02:28:20;10.23;;;2.13;;
5995;SDS011;3026;53.612;7.278;2024-02-23T02:30:48;5.67;;;1.20;;
5995;SDS011;3026;53.612;7.278;2024-02-23T02:33:16;8.37;;;2.63;;
5995;SDS011;3026;53.612;7.278;2024-02-23T02:35:45;6.70;;;1.70;;
5995;SDS011;3026;53.612;7.278;2024-02-23T02:38:12;10.73;;;1.70;;
5995;SDS011;3026;53.612;7.278;2024-02-23T02:40:39;7.80;;;1.53;;
5995;SDS011;3026;53.612;7.278;2024-02-23T02:43:07;3.17;;;1.50;;
5995;SDS011;3026;53.612;7.278;2024-02-23T02:45:41;6.87;;;1.70;;
5995;SDS011;3026;53.612;7.278;2024-02-23T02:48:09;3.43;;;1.40;;
5995;SDS011;3026;53.612;7.278;2024-02-23T02:50:39;4.00;;;1.53;;
5995;SDS011;3026;53.612;7.278;2024-02-23T02:53:06;7.20;;;1.77;;
5995;SDS011;3026;53.612;7.278;2024-02-23T02:55:34;7.27;;;1.63;;
5995;SDS011;3026;53.612;7.278;2024-02-23T02:58:01;10.20;;;1.93;;
5995;SDS011;3026;53.612;7.278;2024-02-23T03:00:28;9.53;;;2.20;;
5995;SDS011;3026;53.612;7.278;2024-02-23T03:02:58;4.40;;;1.60;;
5995;SDS011;3026;53.612;7.278;2024-02-23T03:05:26;6.97;;;1.70;;
5995;SDS011;3026;53.612;7.278;2024-02-23T03:07:53;4.57;;;1.60;;
5995;SDS011;3026;53.612;7.278;2024-02-23T03:10:21;11.60;;;2.40;;
5995;SDS011;3026;53.612;7.278;2024-02-23T03:12:48;12.27;;;2.23;;
5995;SDS011;3026;53.612;7.278;2024-02-23T03:15:15;8.53;;;3.07;;
5995;SDS011;3026;53.612;7.278;2024-02-23T03:17:42;6.93;;;1.60;;
5995;SDS011;3026;53.612;7.278;2024-02-23T03:20:15;4.60;;;1.67;;
5995;SDS011;3026;53.612;7.278;2024-02-23T03:22:42;11.53;;;3.30;;
5995;SDS011;3026;53.612;7.278;2024-02-23T03:25:09;13.13;;;2.00;;
5995;SDS011;3026;53.612;7.278;2024-02-23T03:27:38;10.47;;;2.10;;
5995;SDS011;3026;53.612;7.278;2024-02-23T03:30:05;7.37;;;1.70;;
5995;SDS011;3026;53.612;7.278;2024-02-23T03:32:34;9.30;;;2.17;;
5995;SDS011;3026;53.612;7.278;2024-02-23T03:35:04;16.40;;;2.10;;
5995;SDS011;3026;53.612;7.278;2024-02-23T03:37:35;10.00;;;1.60;;
5995;SDS011;3026;53.612;7.278;2024-02-23T03:40:03;6.47;;;2.20;;
5995;SDS011;3026;53.612;7.278;2024-02-23T03:42:31;6.43;;;1.30;;
5995;SDS011;3026;53.612;7.278;2024-02-23T03:44:58;7.07;;;1.50;;
5995;SDS011;3026;53.612;7.278;2024-02-23T03:47:25;9.77;;;2.20;;
5995;SDS011;3026;53.612;7.278;2024-02-23T03:49:53;7.27;;;1.83;;
5995;SDS011;3026;53.612;7.278;2024-02-23T03:52:20;7.60;;;1.83;;
5995;SDS011;3026;53.612;7.278;2024-02-23T03:54:49;7.43;;;2.33;;
5995;SDS011;3026;53.612;7.278;2024-02-23T03:57:17;7.53;;;1.70;;
5995;SDS011;3026;53.612;7.278;2024-02-23T03:59:51;14.13;;;2.47;;
5995;SDS011;3026;53.612;7.278;2024-02-23T04:02:18;9.70;;;2.03;;
5995;SDS011;3026;53.612;7.278;2024-02-23T04:04:47;9.87;;;2.30;;
5995;SDS011;3026;53.612;7.278;2024-02-23T04:07:14;6.33;;;1.93;;
5995;SDS011;3026;53.612;7.278;2024-02-23T04:09:41;6.90;;;2.13;;
5995;SDS011;3026;53.612;7.278;2024-02-23T04:12:10;9.80;;;1.87;;
5995;SDS011;3026;53.612;7.278;2024-02-23T04:14:37;7.83;;;2.00;;
5995;SDS011;3026;53.612;7.278;2024-02-23T04:17:05;7.43;;;1.73;;
5995;SDS011;3026;53.612;7.278;2024-02-23T04:19:34;7.67;;;2.03;;
5995;SDS011;3026;53.612;7.278;2024-02-23T04:22:01;6.73;;;1.50;;
5995;SDS011;3026;53.612;7.278;2024-02-23T04:24:29;4.87;;;1.80;;
5995;SDS011;3026;53.612;7.278;2024-02-23T04:26:56;10.63;;;2.87;;
5995;SDS011;3026;53.612;7.278;2024-02-23T04:29:24;5.10;;;1.83;;
5995;SDS011;3026;53.612;7.278;2024-02-23T04:31:52;7.73;;;2.10;;
5995;SDS011;3026;53.612;7.278;2024-02-23T04:34:19;5.23;;;1.40;;
5995;SDS011;3026;53.612;7.278;2024-02-23T04:36:47;11.87;;;2.57;;
5995;SDS011;3026;53.612;7.278;2024-02-23T04:39:14;7.00;;;1.20;;
5995;SDS011;3026;53.612;7.278;2024-02-23T04:41:42;2.07;;;0.83;;
5995;SDS011;3026;53.612;7.278;2024-02-23T04:44:09;2.20;;;1.00;;
5995;SDS011;3026;53.612;7.278;2024-02-23T04:46:38;5.77;;;1.40;;
5995;SDS011;3026;53.612;7.278;2024-02-23T04:49:05;10.83;;;3.30;;
5995;SDS011;3026;53.612;7.278;2024-02-23T04:51:32;8.87;;;1.63;;
5995;SDS011;3026;53.612;7.278;2024-02-23T04:53:59;4.33;;;1.33;;
5995;SDS011;3026;53.612;7.278;2024-02-23T04:56:27;5.60;;;1.57;;
5995;SDS011;3026;53.612;7.278;2024-02-23T04:58:54;8.47;;;1.33;;
5995;SDS011;3026;53.612;7.278;2024-02-23T05:01:23;7.73;;;1.50;;
5995;SDS011;3026;53.612;7.278;2024-02-23T05:03:52;6.33;;;1.43;;
5995;SDS011;3026;53.612;7.278;2024-02-23T05:06:21;11.37;;;1.83;;
5995;SDS011;3026;53.612;7.278;2024-02-23T05:08:49;5.00;;;1.20;;
5995;SDS011;3026;53.612;7.278;2024-02-23T05:11:16;3.83;;;1.00;;
5995;SDS011;3026;53.612;7.278;2024-02-23T05:13:43;4.70;;;1.30;;
5995;SDS011;3026;53.612;7.278;2024-02-23T05:16:13;5.53;;;1.70;;
5995;SDS011;3026;53.612;7.278;2024-02-23T05:18:40;3.40;;;1.20;;
5995;SDS011;3026;53.612;7.278;2024-02-23T05:21:15;8.77;;;1.30;;
5995;SDS011;3026;53.612;7.278;2024-02-23T05:23:43;4.67;;;1.10;;
5995;SDS011;3026;53.612;7.278;2024-02-23T05:26:11;9.67;;;1.43;;
5995;SDS011;3026;53.612;7.278;2024-02-23T05:28:38;5.67;;;1.83;;
5995;SDS011;3026;53.612;7.278;2024-02-23T05:31:06;3.43;;;1.00;;
5995;SDS011;3026;53.612;7.278;2024-02-23T05:33:32;5.50;;;1.70;;
5995;SDS011;3026;53.612;7.278;2024-02-23T05:36:03;7.83;;;1.60;;
5995;SDS011;3026;53.612;7.278;2024-02-23T05:38:32;7.80;;;1.80;;
5995;SDS011;3026;53.612;7.278;2024-02-23T05:41:00;5.17;;;1.70;;
5995;SDS011;3026;53.612;7.278;2024-02-23T05:43:27;6.73;;;1.47;;
5995;SDS011;3026;53.612;7.278;2024-02-23T05:45:55;6.43;;;1.67;;
5995;SDS011;3026;53.612;7.278;2024-02-23T05:48:24;5.63;;;1.50;;
5995;SDS011;3026;53.612;7.278;2024-02-23T05:50:51;6.87;;;1.37;;
5995;SDS011;3026;53.612;7.278;2024-02-23T05:53:18;10.17;;;1.90;;
5995;SDS011;3026;53.612;7.278;2024-02-23T05:55:48;7.37;;;1.33;;
5995;SDS011;3026;53.612;7.278;2024-02-23T05:58:15;10.03;;;1.53;;
5995;SDS011;3026;53.612;7.278;2024-02-23T06:00:42;5.47;;;1.30;;
5995;SDS011;3026;53.612;7.278;2024-02-23T06:03:09;3.43;;;1.07;;
5995;SDS011;3026;53.612;7.278;2024-02-23T06:05:38;7.07;;;1.57;;
5995;SDS011;3026;53.612;7.278;2024-02-23T06:08:06;4.50;;;1.47;;
5995;SDS011;3026;53.612;7.278;2024-02-23T06:10:33;5.23;;;1.50;;
5995;SDS011;3026;53.612;7.278;2024-02-23T06:13:02;4.50;;;1.60;;
5995;SDS011;3026;53.612;7.278;2024-02-23T06:15:29;5.43;;;1.10;;
5995;SDS011;3026;53.612;7.278;2024-02-23T06:17:56;9.23;;;1.73;;
5995;SDS011;3026;53.612;7.278;2024-02-23T06:20:24;5.97;;;1.40;;
5995;SDS011;3026;53.612;7.278;2024-02-23T06:22:52;10.03;;;1.70;;
5995;SDS011;3026;53.612;7.278;2024-02-23T06:25:21;6.60;;;1.30;;
5995;SDS011;3026;53.612;7.278;2024-02-23T06:27:48;8.57;;;2.07;;
5995;SDS011;3026;53.612;7.278;2024-02-23T06:30:17;7.87;;;1.70;;
5995;SDS011;3026;53.612;7.278;2024-02-23T06:32:46;6.67;;;1.53;;
5995;SDS011;3026;53.612;7.278;2024-02-23T06:35:14;3.83;;;1.60;;
5995;SDS011;3026;53.612;7.278;2024-02-23T06:37:42;6.83;;;1.70;;
5995;SDS011;3026;53.612;7.278;2024-02-23T06:40:10;5.90;;;2.03;;
5995;SDS011;3026;53.612;7.278;2024-02-23T06:42:36;7.50;;;1.33;;
5995;SDS011;3026;53.612;7.278;2024-02-23T06:45:04;9.10;;;2.80;;
5995;SDS011;3026;53.612;7.278;2024-02-23T06:47:34;5.77;;;1.27;;
5995;SDS011;3026;53.612;7.278;2024-02-23T06:50:02;8.37;;;1.70;;
5995;SDS011;3026;53.612;7.278;2024-02-23T06:52:30;5.87;;;2.00;;
5995;SDS011;3026;53.612;7.278;2024-02-23T06:54:58;5.13;;;1.97;;
5995;SDS011;3026;53.612;7.278;2024-02-23T06:57:25;5.07;;;1.80;;
5995;SDS011;3026;53.612;7.278;2024-02-23T06:59:53;8.63;;;1.60;;
5995;SDS011;3026;53.612;7.278;2024-02-23T07:02:20;8.17;;;2.10;;
5995;SDS011;3026;53.612;7.278;2024-02-23T07:04:54;9.87;;;2.43;;
5995;SDS011;3026;53.612;7.278;2024-02-23T07:07:22;7.50;;;2.17;;
5995;SDS011;3026;53.612;7.278;2024-02-23T07:09:52;8.20;;;2.27;;
5995;SDS011;3026;53.612;7.278;2024-02-23T07:12:21;11.83;;;3.00;;
5995;SDS011;3026;53.612;7.278;2024-02-23T07:14:53;8.47;;;3.57;;
5995;SDS011;3026;53.612;7.278;2024-02-23T07:17:21;6.37;;;3.47;;
5995;SDS011;3026;53.612;7.278;2024-02-23T07:19:50;6.10;;;3.73;;
5995;SDS011;3026;53.612;7.278;2024-02-23T07:22:18;7.57;;;4.27;;
5995;SDS011;3026;53.612;7.278;2024-02-23T07:24:46;13.57;;;4.13;;
5995;SDS011;3026;53.612;7.278;2024-02-23T07:27:14;9.73;;;4.30;;
5995;SDS011;3026;53.612;7.278;2024-02-23T07:29:41;7.50;;;4.27;;
5995;SDS011;3026;53.612;7.278;2024-02-23T07:32:09;11.63;;;4.60;;
5995;SDS011;3026;53.612;7.278;2024-02-23T07:34:36;8.33;;;4.23;;
5995;SDS011;3026;53.612;7.278;2024-02-23T07:37:10;6.90;;;4.77;;
5995;SDS011;3026;53.612;7.278;2024-02-23T07:39:37;7.50;;;4.33;;
5995;SDS011;3026;53.612;7.278;2024-02-23T07:42:04;11.47;;;4.70;;
5995;SDS011;3026;53.612;7.278;2024-02-23T07:44:34;9.90;;;5.07;;
5995;SDS011;3026;53.612;7.278;2024-02-23T07:47:05;8.63;;;4.57;;
5995;SDS011;3026;53.612;7.278;2024-02-23T07:49:32;11.77;;;4.13;;
5995;SDS011;3026;53.612;7.278;2024-02-23T07:52:00;10.17;;;4.73;;
5995;SDS011;3026;53.612;7.278;2024-02-23T07:54:29;13.60;;;4.63;;
5995;SDS011;3026;53.612;7.278;2024-02-23T07:56:56;6.87;;;3.70;;
5995;SDS011;3026;53.612;7.278;2024-02-23T07:59:24;9.07;;;4.33;;
5995;SDS011;3026;53.612;7.278;2024-02-23T08:01:51;8.77;;;4.43;;
5995;SDS011;3026;53.612;7.278;2024-02-23T08:04:19;10.47;;;4.87;;
5995;SDS011;3026;53.612;7.278;2024-02-23T08:06:47;10.43;;;4.57;;
5995;SDS011;3026;53.612;7.278;2024-02-23T08:09:14;13.23;;;4.63;;
5995;SDS011;3026;53.612;7.278;2024-02-23T08:11:45;12.10;;;4.40;;
5995;SDS011;3026;53.612;7.278;2024-02-23T08:14:12;12.13;;;4.70;;
5995;SDS011;3026;53.612;7.278;2024-02-23T08:16:40;9.43;;;4.10;;
5995;SDS011;3026;53.612;7.278;2024-02-23T08:19:07;11.40;;;4.23;;
5995;SDS011;3026;53.612;7.278;2024-02-23T08:21:35;9.70;;;4.40;;
5995;SDS011;3026;53.612;7.278;2024-02-23T08:24:02;7.90;;;3.60;;
5995;SDS011;3026;53.612;7.278;2024-02-23T08:26:29;7.67;;;3.77;;
5995;SDS011;3026;53.612;7.278;2024-02-23T08:28:58;6.83;;;3.77;;
5995;SDS011;3026;53.612;7.278;2024-02-23T08:31:25;9.07;;;3.97;;
5995;SDS011;3026;53.612;7.278;2024-02-23T08:33:52;8.97;;;3.63;;
5995;SDS011;3026;53.612;7.278;2024-02-23T08:36:20;9.37;;;4.03;;
5995;SDS011;3026;53.612;7.278;2024-02-23T08:38:47;8.20;;;4.23;;
5995;SDS011;3026;53.612;7.278;2024-02-23T08:41:20;9.00;;;3.30;;
5995;SDS011;3026;53.612;7.278;2024-02-23T08:43:49;5.70;;;3.37;;
5995;SDS011;3026;53.612;7.278;2024-02-23T08:46:18;7.83;;;3.43;;
5995;SDS011;3026;53.612;7.278;2024-02-23T08:48:46;9.10;;;3.40;;
5995;SDS011;3026;53.612;7.278;2024-02-23T08:51:15;9.00;;;3.53;;
5995;SDS011;3026;53.612;7.278;2024-02-23T08:53:42;10.53;;;3.53;;
5995;SDS011;3026;53.612;7.278;2024-02-23T08:56:11;6.50;;;3.70;;
5995;SDS011;3026;53.612;7.278;2024-02-23T08:58:40;8.30;;;3.37;;
5995;SDS011;3026;53.612;7.278;2024-02-23T09:01:08;8.10;;;3.03;;
5995;SDS011;3026;53.612;7.278;2024-02-23T09:03:37;6.47;;;2.90;;
5995;SDS011;3026;53.612;7.278;2024-02-23T09:06:04;7.20;;;3.37;;
5995;SDS011;3026;53.612;7.278;2024-02-23T09:08:32;6.37;;;2.90;;
5995;SDS011;3026;53.612;7.278;2024-02-23T09:10:59;9.30;;;3.50;;
5995;SDS011;3026;53.612;7.278;2024-02-23T09:13:27;6.73;;;2.90;;
5995;SDS011;3026;53.612;7.278;2024-02-23T09:15:55;7.07;;;2.80;;
5995;SDS011;3026;53.612;7.278;2024-02-23T09:18:22;4.03;;;2.40;;
5995;SDS011;3026;53.612;7.278;2024-02-23T09:20:53;9.23;;;2.57;;
5995;SDS011;3026;53.612;7.278;2024-02-23T09:23:20;8.30;;;2.10;;
5995;SDS011;3026;53.612;7.278;2024-02-23T09:25:48;3.80;;;2.37;;
5995;SDS011;3026;53.612;7.278;2024-02-23T09:28:15;4.23;;;2.13;;
5995;SDS011;3026;53.612;7.278;2024-02-23T09:30:42;2.23;;;1.90;;
5995;SDS011;3026;53.612;7.278;2024-02-23T09:33:09;3.33;;;2.10;;
5995;SDS011;3026;53.612;7.278;2024-02-23T09:35:37;3.40;;;1.63;;
5995;SDS011;3026;53.612;7.278;2024-02-23T09:38:06;5.73;;;1.90;;
5995;SDS011;3026;53.612;7.278;2024-02-23T09:40:33;4.23;;;1.60;;
5995;SDS011;3026;53.612;7.278;2024-02-23T09:43:03;4.10;;;1.67;;
5995;SDS011;3026;53.612;7.278;2024-02-23T09:45:34;2.80;;;1.73;;
5995;SDS011;3026;53.612;7.278;2024-02-23T09:48:01;4.43;;;1.33;;
5995;SDS011;3026;53.612;7.278;2024-02-23T09:50:31;5.10;;;1.80;;
5995;SDS011;3026;53.612;7.278;2024-02-23T09:53:00;6.93;;;1.60;;
5995;SDS011;3026;53.612;7.278;2024-02-23T09:55:31;4.67;;;1.50;;
5995;SDS011;3026;53.612;7.278;2024-02-23T09:58:00;4.73;;;2.27;;
5995;SDS011;3026;53.612;7.278;2024-02-23T10:00:29;3.83;;;1.50;;
5995;SDS011;3026;53.612;7.278;2024-02-23T10:02:57;7.83;;;1.50;;
5995;SDS011;3026;53.612;7.278;2024-02-23T10:05:27;3.17;;;1.50;;
5995;SDS011;3026;53.612;7.278;2024-02-23T10:07:57;5.43;;;1.80;;
5995;SDS011;3026;53.612;7.278;2024-02-23T10:10:24;5.67;;;1.50;;
5995;SDS011;3026;53.612;7.278;2024-02-23T10:13:01;6.07;;;1.70;;
5995;SDS011;3026;53.612;7.278;2024-02-23T10:15:30;4.10;;;1.33;;
5995;SDS011;3026;53.612;7.278;2024-02-23T10:17:57;10.47;;;2.03;;
5995;SDS011;3026;53.612;7.278;2024-02-23T10:20:25;4.97;;;1.50;;
5995;SDS011;3026;53.612;7.278;2024-02-23T10:22:53;3.60;;;1.57;;
5995;SDS011;3026;53.612;7.278;2024-02-23T10:25:21;3.37;;;1.53;;
5995;SDS011;3026;53.612;7.278;2024-02-23T10:27:51;4.37;;;1.60;;
5995;SDS011;3026;53.612;7.278;2024-02-23T10:30:18;4.17;;;1.40;;
5995;SDS011;3026;53.612;7.278;2024-02-23T10:32:46;4.07;;;1.40;;
5995;SDS011;3026;53.612;7.278;2024-02-23T10:35:19;3.60;;;1.60;;
5995;SDS011;3026;53.612;7.278;2024-02-23T10:37:49;7.57;;;1.90;;
5995;SDS011;3026;53.612;7.278;2024-02-23T10:40:17;3.50;;;1.37;;
5995;SDS011;3026;53.612;7.278;2024-02-23T10:42:51;3.27;;;1.23;;
5995;SDS011;3026;53.612;7.278;2024-02-23T10:45:23;4.07;;;1.40;;
5995;SDS011;3026;53.612;7.278;2024-02-23T10:47:51;4.53;;;1.57;;
5995;SDS011;3026;53.612;7.278;2024-02-23T10:50:20;3.57;;;1.67;;
5995;SDS011;3026;53.612;7.278;2024-02-23T10:52:51;4.13;;;1.27;;
5995;SDS011;3026;53.612;7.278;2024-02-23T10:55:19;3.80;;;1.20;;
5995;SDS011;3026;53.612;7.278;2024-02-23T10:57:48;8.77;;;1.60;;
5995;SDS011;3026;53.612;7.278;2024-02-23T11:00:21;4.03;;;1.20;;
5995;SDS011;3026;53.612;7.278;2024-02-23T11:02:51;8.20;;;1.30;;
5995;SDS011;3026;53.612;7.278;2024-02-23T11:05:22;5.53;;;1.40;;
5995;SDS011;3026;53.612;7.278;2024-02-23T11:07:55;3.80;;;0.90;;
5995;SDS011;3026;53.612;7.278;2024-02-23T11:10:22;3.97;;;1.10;;
5995;SDS011;3026;53.612;7.278;2024-02-23T11:13:00;6.73;;;1.37;;
5995;SDS011;3026;53.612;7.278;2024-02-23T11:15:28;4.80;;;1.10;;
5995;SDS011;3026;53.612;7.278;2024-02-23T11:17:59;5.80;;;1.50;;
5995;SDS011;3026;53.612;7.278;2024-02-23T11:20:34;4.23;;;1.30;;
5995;SDS011;3026;53.612;7.278;2024-02-23T11:23:12;3.27;;;0.93;;
5995;SDS011;3026;53.612;7.278;2024-02-23T11:25:42;4.00;;;1.30;;
5995;SDS011;3026;53.612;7.278;2024-02-23T11:28:14;3.67;;;1.00;;
5995;SDS011;3026;53.612;7.278;2024-02-23T11:30:48;5.60;;;1.43;;
5995;SDS011;3026;53.612;7.278;2024-02-23T11:33:25;4.97;;;1.03;;
5995;SDS011;3026;53.612;7.278;2024-02-23T11:35:52;5.33;;;1.13;;
5995;SDS011;3026;53.612;7.278;2024-02-23T11:38:20;3.57;;;1.10;;
5995;SDS011;3026;53.612;7.278;2024-02-23T11:40:48;4.97;;;1.30;;
5995;SDS011;3026;53.612;7.278;2024-02-23T11:43:17;6.00;;;1.57;;
5995;SDS011;3026;53.612;7.278;2024-02-23T11:45:46;4.83;;;1.17;;
5995;SDS011;3026;53.612;7.278;2024-02-23T11:48:14;5.27;;;1.50;;
5995;SDS011;3026;53.612;7.278;2024-02-23T11:50:41;5.63;;;1.60;;
5995;SDS011;3026;53.612;7.278;2024-02-23T11:53:09;7.40;;;1.60;;
5995;SDS011;3026;53.612;7.278;2024-02-23T11:55:36;4.97;;;1.50;;
5995;SDS011;3026;53.612;7.278;2024-02-23T11:58:05;3.77;;;1.20;;
5995;SDS011;3026;53.612;7.278;2024-02-23T12:00:35;4.27;;;1.27;;
5995;SDS011;3026;53.612;7.278;2024-02-23T12:03:02;2.90;;;1.00;;
5995;SDS011;3026;53.612;7.278;2024-02-23T12:05:30;2.63;;;1.27;;
5995;SDS011;3026;53.612;7.278;2024-02-23T12:07:57;7.30;;;1.47;;
5995;SDS011;3026;53.612;7.278;2024-02-23T12:10:25;3.90;;;1.20;;
5995;SDS011;3026;53.612;7.278;2024-02-23T12:12:53;4.70;;;1.30;;
5995;SDS011;3026;53.612;7.278;2024-02-23T12:15:21;3.17;;;1.70;;
5995;SDS011;3026;53.612;7.278;2024-02-23T12:17:57;2.93;;;1.30;;
5995;SDS011;3026;53.612;7.278;2024-02-23T12:20:25;12.03;;;1.40;;
5995;SDS011;3026;53.612;7.278;2024-02-23T12:22:54;4.90;;;1.77;;
5995;SDS011;3026;53.612;7.278;2024-02-23T12:25:22;3.30;;;1.20;;
5995;SDS011;3026;53.612;7.278;2024-02-23T12:27:53;3.90;;;1.10;;
5995;SDS011;3026;53.612;7.278;2024-02-23T12:30:22;4.53;;;1.33;;
5995;SDS011;3026;53.612;7.278;2024-02-23T12:32:49;2.97;;;1.00;;
5995;SDS011;3026;53.612;7.278;2024-02-23T12:35:18;4.60;;;1.30;;
5995;SDS011;3026;53.612;7.278;2024-02-23T12:37:45;4.53;;;1.50;;
5995;SDS011;3026;53.612;7.278;2024-02-23T12:40:14;5.97;;;1.20;;
5995;SDS011;3026;53.612;7.278;2024-02-23T12:42:41;4.73;;;1.20;;
5995;SDS011;3026;53.612;7.278;2024-02-23T12:45:09;12.97;;;2.37;;
5995;SDS011;3026;53.612;7.278;2024-02-23T12:47:37;5.97;;;2.00;;
5995;SDS011;3026;53.612;7.278;2024-02-23T12:50:05;4.10;;;1.40;;
5995;SDS011;3026;53.612;7.278;2024-02-23T12:52:37;5.87;;;1.27;;
5995;SDS011;3026;53.612;7.278;2024-02-23T12:55:06;7.30;;;1.20;;
5995;SDS011;3026;53.612;7.278;2024-02-23T12:57:34;5.13;;;1.20;;
5995;SDS011;3026;53.612;7.278;2024-02-23T13:00:01;3.73;;;1.23;;
5995;SDS011;3026;53.612;7.278;2024-02-23T13:02:31;3.13;;;1.30;;
5995;SDS011;3026;53.612;7.278;2024-02-23T13:04:58;3.37;;;1.00;;
5995;SDS011;3026;53.612;7.278;2024-02-23T13:07:25;4.63;;;1.17;;
5995;SDS011;3026;53.612;7.278;2024-02-23T13:09:53;2.70;;;0.90;;
5995;SDS011;3026;53.612;7.278;2024-02-23T13:12:22;3.93;;;1.10;;
5995;SDS011;3026;53.612;7.278;2024-02-23T13:14:50;4.90;;;1.53;;
5995;SDS011;3026;53.612;7.278;2024-02-23T13:17:18;4.13;;;1.40;;
5995;SDS011;3026;53.612;7.278;2024-02-23T13:19:45;1.97;;;1.00;;
5995;SDS011;3026;53.612;7.278;2024-02-23T13:22:13;4.17;;;1.40;;
5995;SDS011;3026;53.612;7.278;2024-02-23T13:24:40;3.17;;;1.23;;
5995;SDS011;3026;53.612;7.278;2024-02-23T13:27:23;3.10;;;1.40;;
5995;SDS011;3026;53.612;7.278;2024-02-23T13:29:50;4.13;;;1.37;;
5995;SDS011;3026;53.612;7.278;2024-02-23T13:32:18;5.03;;;1.20;;
5995;SDS011;3026;53.612;7.278;2024-02-23T13:34:45;5.73;;;1.60;;
5995;SDS011;3026;53.612;7.278;2024-02-23T13:37:18;4.10;;;1.10;;
5995;SDS011;3026;53.612;7.278;2024-02-23T13:39:45;2.13;;;1.30;;
5995;SDS011;3026;53.612;7.278;2024-02-23T13:42:14;2.43;;;1.03;;
5995;SDS011;3026;53.612;7.278;2024-02-23T13:44:42;7.77;;;1.90;;
5995;SDS011;3026;53.612;7.278;2024-02-23T13:47:11;4.53;;;1.07;;
5995;SDS011;3026;53.612;7.278;2024-02-23T13:49:38;3.13;;;1.27;;
5995;SDS011;3026;53.612;7.278;2024-02-23T13:52:05;4.03;;;1.30;;
5995;SDS011;3026;53.612;7.278;2024-02-23T13:54:33;2.33;;;1.10;;
5995;SDS011;3026;53.612;7.278;2024-02-23T13:57:01;2.30;;;1.20;;
5995;SDS011;3026;53.612;7.278;2024-02-23T13:59:28;3.47;;;1.27;;
5995;SDS011;3026;53.612;7.278;2024-02-23T14:01:57;5.27;;;1.10;;
5995;SDS011;3026;53.612;7.278;2024-02-23T14:04:25;3.00;;;0.93;;
5995;SDS011;3026;53.612;7.278;2024-02-23T14:06:52;5.13;;;1.20;;
5995;SDS011;3026;53.612;7.278;2024-02-23T14:09:19;6.80;;;1.27;;
5995;SDS011;3026;53.612;7.278;2024-02-23T14:11:47;2.93;;;1.30;;
5995;SDS011;3026;53.612;7.278;2024-02-23T14:14:15;4.50;;;1.20;;
5995;SDS011;3026;53.612;7.278;2024-02-23T14:16:42;2.90;;;1.27;;
5995;SDS011;3026;53.612;7.278;2024-02-23T14:19:11;4.90;;;1.40;;
5995;SDS011;3026;53.612;7.278;2024-02-23T14:21:41;5.03;;;1.33;;
5995;SDS011;3026;53.612;7.278;2024-02-23T14:24:08;2.80;;;1.50;;
5995;SDS011;3026;53.612;7.278;2024-02-23T14:26:35;2.37;;;1.07;;
5995;SDS011;3026;53.612;7.278;2024-02-23T14:29:02;3.80;;;0.93;;
5995;SDS011;3026;53.612;7.278;2024-02-23T14:31:30;3.00;;;1.30;;
5995;SDS011;3026;53.612;7.278;2024-02-23T14:33:57;4.20;;;1.47;;
5995;SDS011;3026;53.612;7.278;2024-02-23T14:36:30;6.17;;;1.33;;
5995;SDS011;3026;53.612;7.278;2024-02-23T14:39:00;2.90;;;1.23;;
5995;SDS011;3026;53.612;7.278;2024-02-23T14:41:29;3.33;;;1.10;;
5995;SDS011;3026;53.612;7.278;2024-02-23T14:43:57;6.63;;;1.30;;
5995;SDS011;3026;53.612;7.278;2024-02-23T14:46:24;1.93;;;1.67;;
5995;SDS011;3026;53.612;7.278;2024-02-23T14:48:51;3.90;;;1.60;;
5995;SDS011;3026;53.612;7.278;2024-02-23T14:51:19;4.50;;;1.40;;
5995;SDS011;3026;53.612;7.278;2024-02-23T14:53:49;2.83;;;1.30;;
5995;SDS011;3026;53.612;7.278;2024-02-23T14:56:16;2.90;;;1.27;;
5995;SDS011;3026;53.612;7.278;2024-02-23T14:58:43;2.80;;;1.20;;
5995;SDS011;3026;53.612;7.278;2024-02-23T15:01:12;2.57;;;1.10;;
5995;SDS011;3026;53.612;7.278;2024-02-23T15:03:40;3.80;;;1.47;;
5995;SDS011;3026;53.612;7.278;2024-02-23T15:06:08;2.53;;;1.40;;
5995;SDS011;3026;53.612;7.278;2024-02-23T15:08:36;3.83;;;1.10;;
5995;SDS011;3026;53.612;7.278;2024-02-23T15:11:04;2.27;;;1.40;;
5995;SDS011;3026;53.612;7.278;2024-02-23T15:13:32;3.50;;;1.40;;
5995;SDS011;3026;53.612;7.278;2024-02-23T15:15:59;2.60;;;1.10;;
5995;SDS011;3026;53.612;7.278;2024-02-23T15:18:28;2.23;;;1.20;;
5995;SDS011;3026;53.612;7.278;2024-02-23T15:20:55;2.90;;;1.60;;
5995;SDS011;3026;53.612;7.278;2024-02-23T15:23:23;6.20;;;1.00;;